Wolf Creek Pass, CO

9:31 PM MDT on May 24, 2017 (GMT -0600)
Wolf Creek Pass

Weather History for KCPW - January, 2014

Change the Weather History Date:

Friday, January 24, 2014

  Actual Average (KALS) Record (KALS)
Temperature  
Mean Temperature 19 °F -  
Max Temperature 30 °F 33 °F 54 °F (1981)
Min Temperature 8 °F -4 °F -25 °F (1979)
Degree Days  
Heating Degree Days 46    
Moisture  
Dew Point -8 °F    
Average Humidity 31    
Maximum Humidity 92    
Minimum Humidity 12    
Precipitation  
Precipitation 0.00 in - - ()
Sea Level Pressure  
Sea Level Pressure 30.42 in    
Wind  
Wind Speed 8 mph (NNW)    
Max Wind Speed 16 mph    
Max Gust Speed 24 mph    
Visibility 10 miles    
Events      
Averages and records for this station are not official NWS values.
T = Trace of Precipitation, MM = Missing Value Source: NWS Daily Summary

Daily Weather History Graph

Daily Weather History Graph

Search for Another Location

Airport or City:

Trip Planner

Search our weather history database for the weather conditions in past years. The results will help you decide how hot, cold, wet, or windy it might be!

Date:

Astronomy

Jan. 24, 2014 Rise Set
Actual Time 7:16 AM MST 5:22 PM MST
Civil Twilight 6:48 AM MST 5:50 PM MST
Nautical Twilight 6:16 AM MST 6:22 PM MST
Astronomical Twilight 5:45 AM MST 6:53 PM MST
Moon 12:48 AM MST (1/24) 11:42 AM MST (1/24)
Length of Visible Light 11h 02m
Length of Day
10h 06m
Last Quarter, 44% of the Moon is Illuminated
Jan 24
Last Quarter
Jan 30
New
Feb 6
First Quarter
Feb 14
Full
Feb 22
Last Quarter

Hourly Weather History & Observations

Time (MST) Temp. Windchill Dew Point Humidity Pressure Visibility Wind Dir Wind Speed Gust Speed Precip Events Conditions
12:18 AM 10.4 °F -0.4 °F 8.6 °F 92% 30.39 in 10.0 mi West 6.9 mph - N/A   Clear
12:38 AM 8.6 °F -1.3 °F 6.8 °F 92% 30.39 in 10.0 mi West 5.8 mph - N/A   Clear
12:58 AM 8.6 °F -2.6 °F 5.0 °F 85% 30.39 in 10.0 mi WNW 6.9 mph - N/A   Clear
1:18 AM 10.4 °F -2.4 °F 1.4 °F 67% 30.39 in 10.0 mi WNW 9.2 mph - N/A   Clear
1:38 AM 10.4 °F 0.8 °F -4.0 °F 52% 30.39 in 10.0 mi WNW 5.8 mph - N/A   Clear
1:58 AM 12.2 °F 4.3 °F -7.6 °F 41% 30.39 in 10.0 mi West 4.6 mph - N/A   Clear
2:18 AM 12.2 °F 1.7 °F -7.6 °F 41% 30.39 in 10.0 mi WNW 6.9 mph - N/A   Clear
2:38 AM 12.2 °F 1.7 °F -13.0 °F 32% 30.39 in 10.0 mi NW 6.9 mph - N/A   Clear
2:58 AM 12.2 °F 4.3 °F -14.8 °F 29% 30.40 in 10.0 mi NNW 4.6 mph - N/A   Clear
3:18 AM 12.2 °F 6.1 °F -14.8 °F 29% 30.40 in 10.0 mi NW 3.5 mph - N/A   Clear
3:38 AM 14.0 °F 6.5 °F -18.4 °F 22% 30.40 in 10.0 mi North 4.6 mph - N/A   Clear
3:58 AM 12.2 °F 1.7 °F -18.4 °F 24% 30.40 in 10.0 mi NNE 6.9 mph - N/A   Clear
4:18 AM 14.0 °F 0.5 °F -18.4 °F 22% 30.39 in 10.0 mi NNE 11.5 mph - N/A   Clear
4:38 AM 14.0 °F 1.2 °F -22.0 °F 19% 30.39 in 10.0 mi North 10.4 mph 19.6 mph N/A   Clear
4:58 AM 14.0 °F 3.9 °F -23.8 °F 17% 30.40 in 10.0 mi NW 6.9 mph - N/A   Clear
5:18 AM 15.8 °F 4.2 °F -23.8 °F 16% 30.40 in 10.0 mi NNE 9.2 mph 16.1 mph N/A   Clear
5:38 AM 15.8 °F 5.1 °F -22.0 °F 17% 30.39 in 10.0 mi North 8.1 mph - N/A   Clear
5:58 AM 17.6 °F 9.3 °F -22.0 °F 16% 30.39 in 10.0 mi NNE 5.8 mph - N/A   Clear
6:18 AM 15.8 °F 10.2 °F -20.2 °F 19% 30.39 in 10.0 mi North 3.5 mph - N/A   Clear
6:38 AM 15.8 °F 6.1 °F -18.4 °F 21% 30.40 in 10.0 mi NNW 6.9 mph - N/A   Clear
6:58 AM 17.6 °F 12.3 °F -18.4 °F 19% 30.40 in 10.0 mi ENE 3.5 mph - N/A   Clear
7:18 AM 17.6 °F 6.4 °F -18.4 °F 19% 30.40 in 10.0 mi North 9.2 mph 17.3 mph N/A   Clear
7:33 AM 17.6 °F 5.0 °F -18.4 °F 19% 30.40 in 10.0 mi North 11.5 mph - N/A   Clear
8:06 AM 17.6 °F 5.0 °F -20.2 °F 18% 30.41 in 10.0 mi North 11.5 mph - N/A   Clear
8:58 AM 21.2 °F 11.7 °F -18.4 °F 17% 30.42 in 10.0 mi NNE 8.1 mph - N/A   Clear
9:18 AM 21.2 °F 9.5 °F -22.0 °F 14% 30.43 in 10.0 mi NNE 11.5 mph 20.7 mph N/A   Clear
9:38 AM 21.2 °F 9.5 °F -22.0 °F 14% 30.44 in 10.0 mi NNE 11.5 mph 21.9 mph N/A   Clear
9:58 AM 21.2 °F 7.8 °F -16.6 °F 18% 30.44 in 10.0 mi North 15.0 mph 18.4 mph N/A   Clear
10:18 AM 23.0 °F 11.7 °F -18.4 °F 15% 30.46 in 10.0 mi North 11.5 mph 18.4 mph N/A   Clear
10:38 AM 24.8 °F 15.3 °F -18.4 °F 14% 30.46 in 10.0 mi NNE 9.2 mph 18.4 mph N/A   Clear
10:58 AM 24.8 °F 16.9 °F -16.6 °F 16% 30.47 in 10.0 mi NE 6.9 mph 17.3 mph N/A   Clear
11:18 AM 26.6 °F 22.6 °F -14.8 °F 16% 30.47 in 10.0 mi North 3.5 mph 19.6 mph N/A   Clear
11:38 AM 28.4 °F - -14.8 °F 15% 30.47 in 10.0 mi Calm Calm - N/A   Clear
11:58 AM 28.4 °F 23.3 °F -18.4 °F 12% 30.46 in 10.0 mi North 4.6 mph - N/A   Clear
12:18 PM 28.4 °F 22.2 °F -16.6 °F 13% 30.45 in 10.0 mi NE 5.8 mph - N/A   Clear
12:38 PM 28.4 °F 21.2 °F -18.4 °F 12% 30.44 in 10.0 mi North 6.9 mph - N/A   Clear
12:58 PM 28.4 °F 23.3 °F -16.6 °F 13% 30.43 in 10.0 mi NNE 4.6 mph - N/A   Clear
1:18 PM 28.4 °F 24.6 °F -7.6 °F 21% 30.42 in 10.0 mi SW 3.5 mph - N/A   Clear
1:38 PM 28.4 °F 21.2 °F -4.0 °F 25% 30.42 in 10.0 mi SSW 6.9 mph - N/A   Clear
1:58 PM 30.2 °F 22.6 °F -2.2 °F 25% 30.41 in 10.0 mi SSW 8.1 mph - N/A   Clear
2:18 PM 28.4 °F 19.7 °F -4.0 °F 25% 30.41 in 10.0 mi SSW 9.2 mph - N/A   Clear
2:38 PM 30.2 °F 19.8 °F -2.2 °F 25% 30.40 in 10.0 mi SW 13.8 mph 17.3 mph N/A   Clear
2:58 PM 30.2 °F 20.8 °F 1.4 °F 29% 30.41 in 10.0 mi SSW 11.5 mph - N/A   Clear
3:18 PM 28.4 °F 18.0 °F 3.2 °F 34% 30.41 in 10.0 mi SW 12.7 mph 17.3 mph N/A   Clear
3:38 PM 28.4 °F 19.7 °F 3.2 °F 34% 30.41 in 10.0 mi SSW 9.2 mph - N/A   Clear
3:58 PM 28.4 °F 19.1 °F 1.4 °F 31% 30.42 in 10.0 mi SSW 10.4 mph - N/A   Clear
4:18 PM 26.6 °F 16.8 °F 1.4 °F 34% 30.42 in 10.0 mi SSW 10.4 mph - N/A   Clear
4:38 PM 26.6 °F 18.2 °F 1.4 °F 34% 30.42 in 10.0 mi SSW 8.1 mph - N/A   Clear
4:58 PM 24.8 °F 16.1 °F 1.4 °F 36% 30.42 in 10.0 mi SSW 8.1 mph - N/A   Clear
5:18 PM 23.0 °F 13.1 °F -4.0 °F 31% 30.42 in 10.0 mi SW 9.2 mph - N/A   Clear
5:38 PM 23.0 °F 11.7 °F -4.0 °F 31% 30.43 in 10.0 mi SW 11.5 mph - N/A   Clear
5:58 PM 21.2 °F 8.9 °F -0.4 °F 39% 30.42 in 10.0 mi SW 12.7 mph - N/A   Clear
6:18 PM 23.0 °F 11.1 °F -0.4 °F 36% 30.43 in 10.0 mi SW 12.7 mph - N/A   Clear
6:38 PM 23.0 °F 12.4 °F 1.4 °F 39% 30.43 in 10.0 mi SW 10.4 mph - N/A   Clear
6:58 PM 23.0 °F 13.9 °F 3.2 °F 43% 30.44 in 10.0 mi SW 8.1 mph - N/A   Clear
7:18 PM 23.0 °F 13.9 °F 1.4 °F 39% 30.44 in 10.0 mi SW 8.1 mph - N/A   Clear
7:38 PM 23.0 °F 15.8 °F -0.4 °F 36% 30.45 in 10.0 mi WNW 5.8 mph - N/A   Clear
7:58 PM 26.6 °F 19.1 °F 1.4 °F 34% 30.45 in 10.0 mi NW 6.9 mph - N/A   Clear
8:18 PM 26.6 °F 19.1 °F 1.4 °F 34% 30.45 in 10.0 mi NW 6.9 mph - N/A   Clear
8:38 PM 26.6 °F 20.0 °F 3.2 °F 37% 30.45 in 10.0 mi North 5.8 mph - N/A   Clear
8:58 PM 26.6 °F 16.8 °F 1.4 °F 34% 30.45 in 10.0 mi NNE 10.4 mph - N/A   Clear
9:18 PM 24.8 °F 14.6 °F 1.4 °F 36% 30.45 in 10.0 mi NE 10.4 mph - N/A   Clear
9:38 PM 23.0 °F 11.7 °F 1.4 °F 39% 30.45 in 10.0 mi NE 11.5 mph - N/A   Clear
9:58 PM 23.0 °F 11.7 °F 1.4 °F 39% 30.45 in 10.0 mi NE 11.5 mph - N/A   Clear
10:18 PM 23.0 °F 11.1 °F 1.4 °F 39% 30.46 in 10.0 mi NNE 12.7 mph - N/A   Clear
10:38 PM 23.0 °F 11.7 °F 1.4 °F 39% 30.46 in 10.0 mi NNE 11.5 mph - N/A   Clear
10:58 PM 23.0 °F 11.1 °F 1.4 °F 39% 30.46 in 10.0 mi NE 12.7 mph - N/A   Clear
11:18 PM 26.6 °F 15.7 °F 5.0 °F 40% 30.46 in 10.0 mi NNE 12.7 mph 20.7 mph N/A   Clear
11:38 PM 26.6 °F 14.3 °F 5.0 °F 40% 30.45 in 10.0 mi NE 16.1 mph 21.9 mph N/A   Clear
11:58 PM 26.6 °F 15.2 °F 5.0 °F 40% 30.45 in 10.0 mi NNE 13.8 mph 24.2 mph N/A   Clear